createdAt,value
2022-09-01T00:01:50.217Z,100843.59
2022-09-01T00:04:20.707Z,100841.22
2022-09-01T00:06:48.729Z,100839.55
2022-09-01T00:09:18.958Z,100840.73
2022-09-01T00:11:50.771Z,100844.36
2022-09-01T00:14:28.635Z,100843.09
2022-09-01T00:16:59.642Z,100845.53
2022-09-01T00:19:29.041Z,100848.27
2022-09-01T00:21:56.871Z,100845.11
2022-09-01T00:24:25.819Z,100846.70
2022-09-01T00:26:54.594Z,100844.38
2022-09-01T00:29:23.197Z,100849.29
2022-09-01T00:31:51.102Z,100849.06
2022-09-01T00:34:19.181Z,100842.55
2022-09-01T00:36:47.623Z,100842.17
2022-09-01T00:39:15.409Z,100844.73
2022-09-01T00:41:45.604Z,100843.56
2022-09-01T00:44:18.343Z,100844.15
2022-09-01T00:46:51.027Z,100843.45
2022-09-01T00:49:30.255Z,100840.48
2022-09-01T00:52:06.777Z,100842.73
2022-09-01T00:54:39.955Z,100844.83
2022-09-01T00:57:09.983Z,100842.19
2022-09-01T00:59:43.333Z,100836.92
2022-09-01T01:02:10.989Z,100840.27
2022-09-01T01:04:40.833Z,100837.13
2022-09-01T01:07:08.937Z,100836.45
2022-09-01T01:09:41.783Z,100834.52
2022-09-01T01:12:13.020Z,100830.80
2022-09-01T01:14:41.058Z,100824.09
2022-09-01T01:17:08.612Z,100828.06
2022-09-01T01:20:00.459Z,100828.34
2022-09-01T01:22:57.104Z,100828.63
2022-09-01T01:25:25.458Z,100831.20
2022-09-01T01:28:02.854Z,100829.76
2022-09-01T01:30:35.367Z,100834.50
2022-09-01T01:33:04.495Z,100828.02
2022-09-01T01:35:33.460Z,100830.28
2022-09-01T01:38:03.033Z,100832.16
2022-09-01T01:40:32.232Z,100827.98
2022-09-01T01:43:01.445Z,100830.58
2022-09-01T01:45:29.794Z,100830.05
2022-09-01T01:47:57.951Z,100828.14
2022-09-01T01:50:34.995Z,100824.48
2022-09-01T01:53:11.345Z,100827.01
2022-09-01T01:55:41.236Z,100823.36
2022-09-01T01:58:11.287Z,100824.79
2022-09-01T02:00:39.409Z,100823.76
2022-09-01T02:03:10.424Z,100824.85
2022-09-01T02:05:38.949Z,100821.39
2022-09-01T02:08:10.869Z,100823.69
2022-09-01T02:10:43.386Z,100824.38
2022-09-01T02:13:15.754Z,100819.75
2022-09-01T02:15:45.722Z,100814.61
2022-09-01T02:18:17.437Z,100813.14
2022-09-01T02:20:47.101Z,100816.23
2022-09-01T02:23:17.464Z,100813.08
2022-09-01T02:26:13.962Z,100813.77
2022-09-01T02:28:43.547Z,100813.34
2022-09-01T02:31:12.571Z,100810.54
2022-09-01T02:33:44.923Z,100807.80
2022-09-01T02:36:14.859Z,100811.66
2022-09-01T02:38:47.205Z,100804.95
2022-09-01T02:41:23.143Z,100811.78
2022-09-01T02:43:51.558Z,100811.27
2022-09-01T02:46:22.809Z,100815.02
2022-09-01T02:48:54.277Z,100812.10
2022-09-01T02:51:27.495Z,100817.02
2022-09-01T02:53:55.186Z,100819.14
2022-09-01T02:56:26.670Z,100820.04
2022-09-01T02:58:55.016Z,100823.77
2022-09-01T03:01:25.711Z,100821.15
2022-09-01T03:03:56.125Z,100820.80
2022-09-01T03:06:25.316Z,100819.58
2022-09-01T03:08:55.111Z,100823.49
2022-09-01T03:11:23.896Z,100823.72
2022-09-01T03:13:53.272Z,100821.02
2022-09-01T03:16:22.110Z,100816.21
2022-09-01T03:18:50.720Z,100818.79
2022-09-01T03:21:18.731Z,100816.58
2022-09-01T03:23:48.618Z,100816.02
2022-09-01T03:26:18.708Z,100816.13
2022-09-01T03:28:47.270Z,100821.86
2022-09-01T03:31:16.219Z,100824.76
2022-09-01T03:33:44.229Z,100823.41
2022-09-01T03:36:18.693Z,100828.88
2022-09-01T03:38:48.777Z,100825.14
2022-09-01T03:41:18.676Z,100826.69
2022-09-01T03:43:48.278Z,100829.50
2022-09-01T03:46:20.891Z,100828.98
2022-09-01T03:48:50.700Z,100829.39
2022-09-01T03:51:20.382Z,100831.18
2022-09-01T03:53:48.671Z,100827.52
2022-09-01T03:56:21.016Z,100826.33
2022-09-01T03:58:48.821Z,100825.73
2022-09-01T04:01:16.688Z,100827.42
2022-09-01T04:03:48.403Z,100831.77
2022-09-01T04:06:18.781Z,100832.80
2022-09-01T04:08:46.656Z,100833.77
2022-09-01T04:11:17.953Z,100827.24
2022-09-01T04:13:46.635Z,100829.02
2022-09-01T04:16:41.873Z,100835.26
2022-09-01T04:19:19.453Z,100827.66
2022-09-01T04:21:49.569Z,100831.59
2022-09-01T04:24:18.239Z,100833.36
2022-09-01T04:26:49.006Z,100828.94
2022-09-01T04:29:18.674Z,100830.43
2022-09-01T04:31:52.908Z,100831.40
2022-09-01T04:34:24.312Z,100831.20
2022-09-01T04:36:55.246Z,100827.83
2022-09-01T04:39:24.764Z,100826.02
2022-09-01T04:41:52.792Z,100826.47
2022-09-01T04:44:21.535Z,100826.98
2022-09-01T04:46:50.041Z,100832.71
2022-09-01T04:49:21.641Z,100829.84
2022-09-01T04:51:53.964Z,100829.94
2022-09-01T04:54:24.437Z,100831.49
2022-09-01T04:56:54.277Z,100829.61
2022-09-01T04:59:23.980Z,100836.36
2022-09-01T05:01:54.359Z,100834.44
2022-09-01T05:04:26.866Z,100836.14
2022-09-01T05:06:59.338Z,100839.45
2022-09-01T05:09:33.061Z,100840.70
2022-09-01T05:12:12.738Z,100840.16
2022-09-01T05:14:47.697Z,100837.77
2022-09-01T05:17:16.716Z,100839.34
2022-09-01T05:19:47.345Z,100838.44
2022-09-01T05:22:16.207Z,100837.09
2022-09-01T05:24:44.019Z,100835.42
2022-09-01T05:27:14.313Z,100836.20
2022-09-01T05:29:41.824Z,100832.39
2022-09-01T05:32:10.742Z,100829.79
2022-09-01T05:34:39.435Z,100835.15
2022-09-01T05:37:08.770Z,100835.42
2022-09-01T05:39:37.577Z,100840.13
2022-09-01T05:42:07.380Z,100843.04
2022-09-01T05:44:35.688Z,100845.59
2022-09-01T05:47:04.771Z,100842.48
2022-09-01T05:49:32.858Z,100847.52
2022-09-01T05:52:00.530Z,100850.62
2022-09-01T05:54:28.989Z,100846.23
2022-09-01T05:57:17.498Z,100851.77
2022-09-01T05:59:53.078Z,100853.88
2022-09-01T06:02:22.027Z,100855.34
2022-09-01T06:04:49.815Z,100856.38
2022-09-01T06:07:18.252Z,100853.54
2022-09-01T06:09:48.165Z,100857.55
2022-09-01T06:12:19.754Z,100856.19
2022-09-01T06:14:48.837Z,100858.80
2022-09-01T06:17:21.443Z,100858.39
2022-09-01T06:19:49.297Z,100857.66
2022-09-01T06:22:16.870Z,100859.31
2022-09-01T06:24:46.288Z,100855.67
2022-09-01T06:27:19.702Z,100856.71
2022-09-01T06:29:52.981Z,100858.73
2022-09-01T06:32:21.002Z,100858.04
2022-09-01T06:34:50.511Z,100860.70
2022-09-01T06:37:22.066Z,100862.63
2022-09-01T06:39:50.556Z,100866.02
2022-09-01T06:42:19.330Z,100865.05
2022-09-01T06:44:47.298Z,100870.84
2022-09-01T06:47:15.442Z,100872.63
2022-09-01T06:49:44.166Z,100870.43
2022-09-01T06:52:13.168Z,100870.73
2022-09-01T06:54:43.203Z,100871.96
2022-09-01T06:59:59.609Z,100868.27
2022-09-01T07:02:27.547Z,100871.98
2022-09-01T07:04:55.207Z,100870.80
2022-09-01T07:10:22.819Z,100869.91
2022-09-01T07:13:07.047Z,100868.05
2022-09-01T07:18:28.173Z,100870.61
2022-09-01T07:21:07.418Z,100871.41
2022-09-01T07:24:07.676Z,100872.23
2022-09-01T07:26:35.089Z,100876.92
2022-09-01T07:29:24.457Z,100879.70
2022-09-01T07:34:46.177Z,100876.30
2022-09-01T07:42:59.010Z,100880.27
2022-09-01T07:43:12.085Z,100883.56
2022-09-01T07:45:47.136Z,100887.21
2022-09-01T07:51:35.675Z,100883.26
2022-09-01T07:53:55.812Z,100886.23
2022-09-01T07:56:25.870Z,100889.29
2022-09-01T07:58:57.010Z,100884.53
2022-09-01T08:01:27.193Z,100883.05
2022-09-01T08:03:57.642Z,100883.69
2022-09-01T08:06:28.061Z,100885.59
2022-09-01T08:08:57.988Z,100886.46
2022-09-01T08:11:51.483Z,100888.45
2022-09-01T08:14:18.269Z,100892.44
2022-09-01T08:16:53.443Z,100889.81
2022-09-01T08:19:21.448Z,100891.73
2022-09-01T08:21:49.148Z,100887.41
2022-09-01T08:24:16.721Z,100889.31
2022-09-01T08:26:45.265Z,100891.40
2022-09-01T08:29:12.942Z,100892.98
2022-09-01T08:31:42.290Z,100892.17
2022-09-01T08:34:12.866Z,100894.52
2022-09-01T08:36:40.615Z,100892.92
2022-09-01T08:39:12.703Z,100884.45
2022-09-01T08:41:47.510Z,100883.02
2022-09-01T08:44:28.074Z,100878.91
2022-09-01T08:47:03.277Z,100884.91
2022-09-01T08:49:42.606Z,100886.21
2022-09-01T08:52:21.858Z,100887.66
2022-09-01T08:54:53.841Z,100885.41
2022-09-01T08:57:27.145Z,100885.77
2022-09-01T08:59:54.707Z,100884.13
2022-09-01T09:02:36.343Z,100883.20
2022-09-01T09:05:22.405Z,100877.54
2022-09-01T09:08:08.455Z,100881.63
2022-09-01T09:10:48.683Z,100879.89
2022-09-01T09:13:26.723Z,100880.24
2022-09-01T09:16:14.735Z,100873.48
2022-09-01T09:18:56.662Z,100869.58
2022-09-01T09:21:29.941Z,100874.06
2022-09-01T09:24:03.331Z,100878.26
2022-09-01T09:26:42.220Z,100876.67
2022-09-01T09:29:10.886Z,100878.27
2022-09-01T09:31:48.118Z,100880.05
2022-09-01T09:34:32.799Z,100878.77
2022-09-01T09:37:17.028Z,100882.34
2022-09-01T09:39:45.071Z,100881.80
2022-09-01T09:42:15.374Z,100882.11
2022-09-01T09:44:48.237Z,100879.59
2022-09-01T09:47:43.653Z,100880.04
2022-09-01T09:50:20.925Z,100880.65
2022-09-01T09:52:50.210Z,100878.41
2022-09-01T09:55:27.968Z,100869.71
2022-09-01T09:57:59.799Z,100871.33
2022-09-01T10:00:31.679Z,100863.13
2022-09-01T10:03:07.899Z,100861.56
2022-09-01T10:05:42.783Z,100857.72
2022-09-01T10:08:14.211Z,100855.67
2022-09-01T10:10:45.038Z,100861.65
2022-09-01T10:13:26.936Z,100858.98
2022-09-01T10:15:57.988Z,100857.27
2022-09-01T10:18:30.251Z,100854.27
2022-09-01T10:21:00.727Z,100856.23
2022-09-01T10:23:34.083Z,100852.17
2022-09-01T10:26:09.499Z,100851.73
2022-09-01T10:28:49.479Z,100850.10
2022-09-01T10:31:20.239Z,100854.66
2022-09-01T10:33:48.962Z,100856.58
2022-09-01T10:36:17.683Z,100856.20
2022-09-01T10:38:50.537Z,100859.41
2022-09-01T10:41:59.296Z,100859.42
2022-09-01T10:44:33.123Z,100862.35
2022-09-01T10:47:08.760Z,100860.22
2022-09-01T10:49:59.653Z,100858.78
2022-09-01T10:52:55.346Z,100860.03
2022-09-01T10:55:28.435Z,100854.10
2022-09-01T10:59:30.594Z,100859.38
2022-09-01T11:04:00.492Z,100857.88
2022-09-01T11:09:43.507Z,100857.76
2022-09-01T11:12:45.915Z,100853.57
2022-09-01T11:15:34.108Z,100856.05
2022-09-01T11:18:02.751Z,100858.45
2022-09-01T11:20:34.106Z,100860.00
2022-09-01T11:23:05.854Z,100859.42
2022-09-01T11:25:41.440Z,100858.89
2022-09-01T11:28:31.198Z,100857.98
2022-09-01T11:31:02.176Z,100858.41
2022-09-01T11:33:41.891Z,100855.48
2022-09-01T11:36:18.082Z,100853.84
2022-09-01T11:38:50.583Z,100850.00
2022-09-01T11:41:24.095Z,100844.41
2022-09-01T11:43:57.483Z,100845.66
2022-09-01T11:46:28.947Z,100836.77
2022-09-01T11:48:59.691Z,100838.69
2022-09-01T11:51:27.376Z,100842.58
2022-09-01T11:54:00.370Z,100842.83
2022-09-01T11:56:29.002Z,100839.19
2022-09-01T11:58:56.634Z,100839.45
2022-09-01T12:01:32.533Z,100834.91
2022-09-01T12:04:21.609Z,100829.41
2022-09-01T12:06:54.851Z,100828.55
2022-09-01T12:09:30.777Z,100831.20
2022-09-01T12:11:58.599Z,100829.48
2022-09-01T12:14:26.374Z,100821.17
2022-09-01T12:17:01.155Z,100819.89
2022-09-01T12:19:31.156Z,100818.59
2022-09-01T12:22:02.748Z,100824.00
2022-09-01T12:24:34.709Z,100820.30
2022-09-01T12:27:04.291Z,100820.19
2022-09-01T12:29:32.567Z,100817.34
2022-09-01T12:32:01.274Z,100815.38
2022-09-01T12:34:38.798Z,100813.45
2022-09-01T12:37:10.429Z,100812.48
2022-09-01T12:39:40.102Z,100810.00
2022-09-01T12:42:24.286Z,100813.24
2022-09-01T12:44:53.730Z,100809.29
2022-09-01T12:47:49.977Z,100805.84
2022-09-01T12:50:45.509Z,100805.18
2022-09-01T12:53:27.922Z,100801.75
2022-09-01T12:56:20.248Z,100806.68
2022-09-01T12:58:53.220Z,100805.98
2022-09-01T13:01:39.269Z,100803.21
2022-09-01T13:04:12.048Z,100808.01
2022-09-01T13:06:39.608Z,100807.64
2022-09-01T13:09:07.599Z,100799.39
2022-09-01T13:14:25.039Z,100794.75
2022-09-01T13:16:52.849Z,100789.89
2022-09-01T13:19:27.831Z,100789.89
2022-09-01T13:21:58.173Z,100788.33
2022-09-01T13:24:29.421Z,100786.29
2022-09-01T13:29:46.776Z,100796.56
2022-09-01T13:32:19.152Z,100800.92
2022-09-01T13:34:49.231Z,100803.80
2022-09-01T13:37:18.605Z,100797.61
2022-09-01T13:39:47.742Z,100796.98
2022-09-01T13:42:16.298Z,100794.99
2022-09-01T13:44:44.403Z,100796.46
2022-09-01T13:47:29.038Z,100799.04
2022-09-01T13:50:14.490Z,100798.73
2022-09-01T13:52:45.377Z,100803.02
2022-09-01T13:55:16.176Z,100805.02
2022-09-01T13:57:43.735Z,100809.65
2022-09-01T14:00:16.509Z,100808.86
2022-09-01T14:02:49.636Z,100807.22
2022-09-01T14:05:20.938Z,100805.99
2022-09-01T14:07:48.907Z,100803.71
2022-09-01T14:10:17.691Z,100801.19
2022-09-01T14:12:45.988Z,100795.55
2022-09-01T14:15:17.835Z,100791.42
2022-09-01T14:17:49.543Z,100792.05
2022-09-01T14:20:21.167Z,100791.77
2022-09-01T14:22:49.956Z,100791.52
2022-09-01T14:25:18.962Z,100787.73
2022-09-01T14:27:48.311Z,100791.11
2022-09-01T14:30:18.985Z,100787.39
2022-09-01T14:32:47.132Z,100787.33
2022-09-01T14:35:15.743Z,100784.52
2022-09-01T14:37:44.210Z,100785.86
2022-09-01T14:40:16.690Z,100781.21
2022-09-01T14:42:48.441Z,100778.73
2022-09-01T14:45:17.845Z,100776.00
2022-09-01T14:47:45.549Z,100781.16
2022-09-01T14:50:17.265Z,100781.55
2022-09-01T14:52:48.624Z,100778.38
2022-09-01T14:55:17.097Z,100775.67
2022-09-01T14:57:44.731Z,100776.77
2022-09-01T15:00:13.576Z,100769.55
2022-09-01T15:02:43.269Z,100770.88
2022-09-01T15:05:12.334Z,100772.66
2022-09-01T15:07:40.506Z,100774.84
2022-09-01T15:10:11.558Z,100771.77
2022-09-01T15:12:44.555Z,100771.38
2022-09-01T15:15:12.727Z,100769.80
2022-09-01T15:17:42.265Z,100770.67
2022-09-01T15:20:31.015Z,100770.91
2022-09-01T15:22:58.649Z,100772.64
2022-09-01T15:25:26.686Z,100775.64
2022-09-01T15:27:54.198Z,100774.21
2022-09-01T15:30:22.136Z,100775.08
2022-09-01T15:32:53.493Z,100771.14
2022-09-01T15:35:21.930Z,100766.29
2022-09-01T15:37:50.863Z,100761.90
2022-09-01T15:40:19.851Z,100762.91
2022-09-01T15:42:47.754Z,100766.02
2022-09-01T15:45:18.144Z,100770.69
2022-09-01T15:47:47.643Z,100769.80
2022-09-01T15:50:21.976Z,100772.73
2022-09-01T15:52:52.851Z,100773.04
2022-09-01T15:55:22.919Z,100770.35
2022-09-01T15:57:53.947Z,100769.84
2022-09-01T16:00:23.470Z,100767.48
2022-09-01T16:02:55.716Z,100767.16
2022-09-01T16:05:25.318Z,100767.64
2022-09-01T16:07:54.042Z,100762.05
2022-09-01T16:10:22.489Z,100763.45
2022-09-01T16:12:51.190Z,100763.45
2022-09-01T16:15:21.967Z,100766.34
2022-09-01T16:18:13.287Z,100769.29
2022-09-01T16:20:49.691Z,100771.26
2022-09-01T16:23:20.134Z,100776.66
2022-09-01T16:25:48.141Z,100773.95
2022-09-01T16:28:26.664Z,100773.79
2022-09-01T16:30:59.213Z,100771.27
2022-09-01T16:33:27.017Z,100770.68
2022-09-01T16:36:10.497Z,100766.77
2022-09-01T16:38:46.606Z,100769.23
2022-09-01T16:41:35.600Z,100770.88
2022-09-01T16:44:13.810Z,100772.07
2022-09-01T16:46:48.295Z,100772.31
2022-09-01T16:49:27.480Z,100770.20
2022-09-01T16:52:04.765Z,100767.00
2022-09-01T16:54:47.898Z,100767.66
2022-09-01T16:57:27.501Z,100765.34
2022-09-01T16:59:58.146Z,100765.95
2022-09-01T17:02:36.972Z,100769.33
2022-09-01T17:05:16.615Z,100773.71
2022-09-01T17:07:51.419Z,100775.05
2022-09-01T17:10:32.243Z,100770.95
2022-09-01T17:13:13.636Z,100777.48
2022-09-01T17:15:43.352Z,100781.73
2022-09-01T17:18:21.726Z,100784.64
2022-09-01T17:20:58.192Z,100787.08
2022-09-01T17:23:30.304Z,100788.19
2022-09-01T17:26:02.460Z,100790.96
2022-09-01T17:28:35.738Z,100790.20
2022-09-01T17:31:12.825Z,100790.06
2022-09-01T17:33:56.315Z,100792.85
2022-09-01T17:36:35.877Z,100792.92
2022-09-01T17:39:14.812Z,100800.71
2022-09-01T17:41:47.264Z,100800.85
2022-09-01T17:44:23.720Z,100809.20
2022-09-01T17:47:00.650Z,100815.10
2022-09-01T17:49:35.766Z,100816.35
2022-09-01T17:52:14.698Z,100821.96
2022-09-01T17:54:54.176Z,100826.53
2022-09-01T17:57:26.178Z,100830.42
2022-09-01T18:00:01.113Z,100831.94
2022-09-01T18:03:14.515Z,100834.90
2022-09-01T18:05:45.347Z,100840.15
2022-09-01T18:08:30.400Z,100841.27
2022-09-01T18:11:02.429Z,100843.34
2022-09-01T18:13:52.988Z,100842.43
2022-09-01T18:16:25.320Z,100844.90
2022-09-01T18:18:53.983Z,100844.92
2022-09-01T18:21:26.269Z,100846.75
2022-09-01T18:24:01.412Z,100850.05
2022-09-01T18:26:32.537Z,100846.52
2022-09-01T18:29:02.799Z,100852.09
2022-09-01T18:31:51.274Z,100852.80
2022-09-01T18:34:28.283Z,100854.70
2022-09-01T18:37:02.246Z,100850.89
2022-09-01T18:39:40.882Z,100851.58
2022-09-01T18:42:16.467Z,100859.73
2022-09-01T18:44:53.362Z,100856.98
2022-09-01T18:47:29.992Z,100856.88
2022-09-01T18:50:03.849Z,100856.61
2022-09-01T18:52:49.852Z,100856.20
2022-09-01T18:55:25.083Z,100860.86
2022-09-01T18:57:55.943Z,100861.50
2022-09-01T19:00:30.608Z,100867.63
2022-09-01T19:03:09.567Z,100867.52
2022-09-01T19:05:53.003Z,100869.69
2022-09-01T19:08:30.465Z,100868.31
2022-09-01T19:11:03.388Z,100867.16
2022-09-01T19:13:50.263Z,100865.75
2022-09-01T19:16:30.295Z,100869.69
2022-09-01T19:19:07.449Z,100867.36
2022-09-01T19:21:37.070Z,100871.35
2022-09-01T19:24:09.798Z,100870.89
2022-09-01T19:26:42.163Z,100869.39
2022-09-01T19:29:16.107Z,100868.83
2022-09-01T19:31:49.537Z,100873.23
2022-09-01T19:34:20.032Z,100868.21
2022-09-01T19:36:56.358Z,100869.38
2022-09-01T19:39:29.867Z,100870.02
2022-09-01T19:42:04.182Z,100870.98
2022-09-01T19:44:37.722Z,100870.41
2022-09-01T19:47:10.502Z,100877.96
2022-09-01T19:49:43.753Z,100879.29
2022-09-01T19:52:17.810Z,100879.96
2022-09-01T19:54:53.455Z,100881.23
2022-09-01T19:57:26.254Z,100881.64
2022-09-01T20:00:05.193Z,100878.86
2022-09-01T20:02:37.519Z,100883.30
2022-09-01T20:05:15.128Z,100885.36
2022-09-01T20:07:53.308Z,100886.55
2022-09-01T20:10:37.076Z,100886.51
2022-09-01T20:13:30.414Z,100882.30
2022-09-01T20:16:08.559Z,100878.16
2022-09-01T20:18:42.758Z,100878.56
2022-09-01T20:21:20.799Z,100881.27
2022-09-01T20:23:53.968Z,100881.69
2022-09-01T20:26:26.247Z,100884.56
2022-09-01T20:28:59.451Z,100885.02
2022-09-01T20:31:31.321Z,100882.95
2022-09-01T20:34:04.534Z,100882.71
2022-09-01T20:36:37.655Z,100887.07
2022-09-01T20:39:29.233Z,100889.15
2022-09-01T20:42:04.829Z,100896.34
2022-09-01T20:44:40.504Z,100897.69
2022-09-01T20:47:08.267Z,100896.20
2022-09-01T20:49:38.476Z,100897.34
2022-09-01T20:52:13.801Z,100901.58
2022-09-01T20:54:54.519Z,100896.96
2022-09-01T20:57:33.032Z,100895.52
2022-09-01T21:00:06.419Z,100894.66
2022-09-01T21:02:45.960Z,100900.20
2022-09-01T21:05:25.746Z,100900.74
2022-09-01T21:08:09.370Z,100898.42
2022-09-01T21:10:43.233Z,100905.95
2022-09-01T21:13:24.915Z,100907.19
2022-09-01T21:16:01.257Z,100906.01
2022-09-01T21:18:43.953Z,100903.80
2022-09-01T21:21:21.747Z,100905.82
2022-09-01T21:23:49.379Z,100902.52
2022-09-01T21:26:17.641Z,100905.47
2022-09-01T21:28:48.276Z,100908.75
2022-09-01T21:31:16.032Z,100908.84
2022-09-01T21:33:43.995Z,100912.22
2022-09-01T21:36:11.810Z,100907.15
2022-09-01T21:38:39.567Z,100909.25
2022-09-01T21:41:12.986Z,100906.84
2022-09-01T21:43:44.001Z,100908.51
2022-09-01T21:46:13.079Z,100905.24
2022-09-01T21:48:40.815Z,100903.69
2022-09-01T21:51:08.632Z,100902.13
2022-09-01T21:53:36.296Z,100903.58
2022-09-01T21:56:04.063Z,100902.23
2022-09-01T21:58:32.138Z,100895.14
2022-09-01T22:01:01.820Z,100897.35
2022-09-01T22:03:29.669Z,100898.13
2022-09-01T22:05:57.240Z,100898.34
2022-09-01T22:08:25.335Z,100896.53
2022-09-01T22:10:54.733Z,100899.97
2022-09-01T22:13:24.135Z,100895.53
2022-09-01T22:15:53.616Z,100898.66
2022-09-01T22:18:22.010Z,100897.89
2022-09-01T22:20:49.991Z,100895.37
2022-09-01T22:23:19.566Z,100897.80
2022-09-01T22:25:47.640Z,100893.56
2022-09-01T22:28:15.363Z,100892.30
2022-09-01T22:30:48.165Z,100893.73
2022-09-01T22:33:16.926Z,100890.42
2022-09-01T22:35:47.649Z,100891.81
2022-09-01T22:38:15.740Z,100891.80
2022-09-01T22:40:48.331Z,100890.71
2022-09-01T22:43:17.060Z,100889.18
2022-09-01T22:45:45.055Z,100892.04
2022-09-01T22:48:13.188Z,100891.19
2022-09-01T22:50:43.340Z,100888.39
2022-09-01T22:53:11.898Z,100887.50
2022-09-01T22:55:43.586Z,100887.08
2022-09-01T22:58:12.441Z,100886.86
2022-09-01T23:00:45.585Z,100888.96
2022-09-01T23:03:15.065Z,100887.13
2022-09-01T23:05:43.562Z,100886.88
2022-09-01T23:08:11.477Z,100882.60
2022-09-01T23:10:39.362Z,100881.12
2022-09-01T23:13:08.001Z,100877.70
2022-09-01T23:15:39.355Z,100880.81
2022-09-01T23:18:09.371Z,100877.95
2022-09-01T23:20:39.898Z,100876.67
2022-09-01T23:23:08.194Z,100874.70
2022-09-01T23:25:35.851Z,100877.13
2022-09-01T23:28:04.215Z,100879.38
2022-09-01T23:30:37.325Z,100875.52
2022-09-01T23:33:05.458Z,100879.98
2022-09-01T23:35:33.331Z,100877.69
2022-09-01T23:38:00.976Z,100876.27
2022-09-01T23:40:28.700Z,100877.28
2022-09-01T23:42:56.456Z,100876.95
2022-09-01T23:45:35.700Z,100871.98
2022-09-01T23:48:04.277Z,100873.56
2022-09-01T23:50:31.777Z,100873.77
2022-09-01T23:52:59.393Z,100873.39
2022-09-01T23:55:27.260Z,100876.02
2022-09-01T23:57:55.491Z,100873.23
